sensor_id;sensor_type;location;lat;lon;timestamp;temperature;humidity
27803;DHT22;15182;48.174;11.562;2023-06-19T00:02:20;27.80;56.30
27803;DHT22;15182;48.174;11.562;2023-06-19T00:04:47;27.80;56.20
27803;DHT22;15182;48.174;11.562;2023-06-19T00:07:15;27.80;56.30
27803;DHT22;15182;48.174;11.562;2023-06-19T00:09:44;27.90;56.20
27803;DHT22;15182;48.174;11.562;2023-06-19T00:12:12;27.90;56.00
27803;DHT22;15182;48.174;11.562;2023-06-19T00:14:40;27.80;55.90
27803;DHT22;15182;48.174;11.562;2023-06-19T00:17:09;27.80;56.00
27803;DHT22;15182;48.174;11.562;2023-06-19T00:19:37;27.80;56.70
27803;DHT22;15182;48.174;11.562;2023-06-19T00:22:05;27.80;56.10
27803;DHT22;15182;48.174;11.562;2023-06-19T00:24:33;27.80;56.00
27803;DHT22;15182;48.174;11.562;2023-06-19T00:27:02;27.80;55.90
27803;DHT22;15182;48.174;11.562;2023-06-19T00:29:31;27.70;55.80
27803;DHT22;15182;48.174;11.562;2023-06-19T00:31:59;27.80;55.80
27803;DHT22;15182;48.174;11.562;2023-06-19T00:34:29;27.70;55.70
27803;DHT22;15182;48.174;11.562;2023-06-19T00:36:58;27.70;55.80
27803;DHT22;15182;48.174;11.562;2023-06-19T00:39:26;27.70;55.80
27803;DHT22;15182;48.174;11.562;2023-06-19T00:41:54;27.70;56.40
27803;DHT22;15182;48.174;11.562;2023-06-19T00:44:24;27.70;55.90
27803;DHT22;15182;48.174;11.562;2023-06-19T00:46:57;27.60;55.90
27803;DHT22;15182;48.174;11.562;2023-06-19T00:49:25;27.60;55.90
27803;DHT22;15182;48.174;11.562;2023-06-19T00:51:54;27.60;55.90
27803;DHT22;15182;48.174;11.562;2023-06-19T00:54:22;27.60;55.90
27803;DHT22;15182;48.174;11.562;2023-06-19T00:56:50;27.60;55.90
27803;DHT22;15182;48.174;11.562;2023-06-19T00:59:19;27.60;55.90
27803;DHT22;15182;48.174;11.562;2023-06-19T01:01:48;27.60;56.10
27803;DHT22;15182;48.174;11.562;2023-06-19T01:04:16;27.60;56.10
27803;DHT22;15182;48.174;11.562;2023-06-19T01:06:53;27.60;56.10
27803;DHT22;15182;48.174;11.562;2023-06-19T01:09:28;27.70;56.40
27803;DHT22;15182;48.174;11.562;2023-06-19T01:12:06;27.70;56.30
27803;DHT22;15182;48.174;11.562;2023-06-19T01:14:41;27.70;56.40
27803;DHT22;15182;48.174;11.562;2023-06-19T01:17:14;27.70;56.50
27803;DHT22;15182;48.174;11.562;2023-06-19T01:19:42;27.80;56.50
27803;DHT22;15182;48.174;11.562;2023-06-19T01:22:17;27.70;56.30
27803;DHT22;15182;48.174;11.562;2023-06-19T01:24:50;27.70;56.40
27803;DHT22;15182;48.174;11.562;2023-06-19T01:27:17;27.80;56.40
27803;DHT22;15182;48.174;11.562;2023-06-19T01:29:45;27.80;56.40
27803;DHT22;15182;48.174;11.562;2023-06-19T01:32:18;27.80;56.40
27803;DHT22;15182;48.174;11.562;2023-06-19T01:34:48;27.80;56.40
27803;DHT22;15182;48.174;11.562;2023-06-19T01:37:18;27.80;56.30
27803;DHT22;15182;48.174;11.562;2023-06-19T01:39:47;27.70;56.30
27803;DHT22;15182;48.174;11.562;2023-06-19T01:42:16;27.70;56.40
27803;DHT22;15182;48.174;11.562;2023-06-19T01:44:44;27.70;56.40
27803;DHT22;15182;48.174;11.562;2023-06-19T01:47:12;27.70;56.60
27803;DHT22;15182;48.174;11.562;2023-06-19T01:49:42;27.70;56.80
27803;DHT22;15182;48.174;11.562;2023-06-19T01:52:10;27.70;56.70
27803;DHT22;15182;48.174;11.562;2023-06-19T01:54:39;27.70;56.80
27803;DHT22;15182;48.174;11.562;2023-06-19T01:57:08;27.70;56.90
27803;DHT22;15182;48.174;11.562;2023-06-19T01:59:36;27.60;56.80
27803;DHT22;15182;48.174;11.562;2023-06-19T02:02:05;27.70;57.00
27803;DHT22;15182;48.174;11.562;2023-06-19T02:04:33;27.60;57.10
27803;DHT22;15182;48.174;11.562;2023-06-19T02:07:00;27.70;57.00
27803;DHT22;15182;48.174;11.562;2023-06-19T02:09:28;27.70;57.10
27803;DHT22;15182;48.174;11.562;2023-06-19T02:11:58;27.70;57.00
27803;DHT22;15182;48.174;11.562;2023-06-19T02:14:26;27.70;57.00
27803;DHT22;15182;48.174;11.562;2023-06-19T02:16:54;27.60;57.00
27803;DHT22;15182;48.174;11.562;2023-06-19T02:19:22;27.60;57.00
27803;DHT22;15182;48.174;11.562;2023-06-19T02:21:50;27.70;57.00
27803;DHT22;15182;48.174;11.562;2023-06-19T02:24:18;27.70;57.00
27803;DHT22;15182;48.174;11.562;2023-06-19T02:26:45;27.70;57.00
27803;DHT22;15182;48.174;11.562;2023-06-19T02:29:15;27.70;57.00
27803;DHT22;15182;48.174;11.562;2023-06-19T02:31:43;27.70;57.10
27803;DHT22;15182;48.174;11.562;2023-06-19T02:34:11;27.70;57.30
27803;DHT22;15182;48.174;11.562;2023-06-19T02:36:39;27.70;57.40
27803;DHT22;15182;48.174;11.562;2023-06-19T02:39:09;27.70;57.40
27803;DHT22;15182;48.174;11.562;2023-06-19T02:41:37;27.70;57.60
27803;DHT22;15182;48.174;11.562;2023-06-19T02:44:05;27.70;57.70
27803;DHT22;15182;48.174;11.562;2023-06-19T02:46:34;27.70;57.90
27803;DHT22;15182;48.174;11.562;2023-06-19T02:49:01;27.70;58.00
27803;DHT22;15182;48.174;11.562;2023-06-19T02:51:29;27.70;57.90
27803;DHT22;15182;48.174;11.562;2023-06-19T02:53:57;27.70;57.80
27803;DHT22;15182;48.174;11.562;2023-06-19T02:56:26;27.60;57.80
27803;DHT22;15182;48.174;11.562;2023-06-19T02:58:55;27.60;57.90
27803;DHT22;15182;48.174;11.562;2023-06-19T03:01:22;27.60;57.80
27803;DHT22;15182;48.174;11.562;2023-06-19T03:03:51;27.60;57.80
27803;DHT22;15182;48.174;11.562;2023-06-19T03:06:19;27.60;58.00
27803;DHT22;15182;48.174;11.562;2023-06-19T03:08:47;27.60;58.10
27803;DHT22;15182;48.174;11.562;2023-06-19T03:11:15;27.60;58.00
27803;DHT22;15182;48.174;11.562;2023-06-19T03:13:48;27.50;57.90
27803;DHT22;15182;48.174;11.562;2023-06-19T03:16:18;27.50;58.10
27803;DHT22;15182;48.174;11.562;2023-06-19T03:18:47;27.50;58.10
27803;DHT22;15182;48.174;11.562;2023-06-19T03:21:18;27.50;58.30
27803;DHT22;15182;48.174;11.562;2023-06-19T03:23:47;27.50;58.60
27803;DHT22;15182;48.174;11.562;2023-06-19T03:26:16;27.50;58.60
27803;DHT22;15182;48.174;11.562;2023-06-19T03:28:45;27.50;58.70
27803;DHT22;15182;48.174;11.562;2023-06-19T03:31:13;27.40;58.60
27803;DHT22;15182;48.174;11.562;2023-06-19T03:33:42;27.40;58.60
27803;DHT22;15182;48.174;11.562;2023-06-19T03:36:10;27.40;58.70
27803;DHT22;15182;48.174;11.562;2023-06-19T03:38:51;27.40;58.70
27803;DHT22;15182;48.174;11.562;2023-06-19T03:41:22;27.40;58.80
27803;DHT22;15182;48.174;11.562;2023-06-19T03:43:50;27.40;59.70
27803;DHT22;15182;48.174;11.562;2023-06-19T03:46:18;27.40;59.10
27803;DHT22;15182;48.174;11.562;2023-06-19T03:48:46;27.40;59.00
27803;DHT22;15182;48.174;11.562;2023-06-19T03:51:14;27.40;58.90
27803;DHT22;15182;48.174;11.562;2023-06-19T03:53:42;27.40;59.00
27803;DHT22;15182;48.174;11.562;2023-06-19T03:56:11;27.40;59.00
27803;DHT22;15182;48.174;11.562;2023-06-19T03:58:39;27.40;59.20
27803;DHT22;15182;48.174;11.562;2023-06-19T04:01:07;27.30;59.20
27803;DHT22;15182;48.174;11.562;2023-06-19T04:03:35;27.40;59.40
27803;DHT22;15182;48.174;11.562;2023-06-19T04:06:02;27.30;59.60
27803;DHT22;15182;48.174;11.562;2023-06-19T04:08:30;27.30;60.50
27803;DHT22;15182;48.174;11.562;2023-06-19T04:11:00;27.30;60.10
27803;DHT22;15182;48.174;11.562;2023-06-19T04:13:29;27.30;60.40
27803;DHT22;15182;48.174;11.562;2023-06-19T04:15:58;27.30;60.70
27803;DHT22;15182;48.174;11.562;2023-06-19T04:18:27;27.30;60.70
27803;DHT22;15182;48.174;11.562;2023-06-19T04:20:56;27.20;60.80
27803;DHT22;15182;48.174;11.562;2023-06-19T04:23:24;27.20;60.60
27803;DHT22;15182;48.174;11.562;2023-06-19T04:25:52;27.10;60.70
27803;DHT22;15182;48.174;11.562;2023-06-19T04:28:20;27.10;60.90
27803;DHT22;15182;48.174;11.562;2023-06-19T04:30:49;27.10;60.90
27803;DHT22;15182;48.174;11.562;2023-06-19T04:33:17;27.00;61.10
27803;DHT22;15182;48.174;11.562;2023-06-19T04:35:47;26.90;60.90
27803;DHT22;15182;48.174;11.562;2023-06-19T04:38:15;26.90;61.00
27803;DHT22;15182;48.174;11.562;2023-06-19T04:40:43;26.90;62.10
27803;DHT22;15182;48.174;11.562;2023-06-19T04:43:10;26.90;61.40
27803;DHT22;15182;48.174;11.562;2023-06-19T04:45:39;26.80;61.50
27803;DHT22;15182;48.174;11.562;2023-06-19T04:48:08;26.80;61.80
27803;DHT22;15182;48.174;11.562;2023-06-19T04:50:35;26.80;62.00
27803;DHT22;15182;48.174;11.562;2023-06-19T04:53:03;26.70;62.00
27803;DHT22;15182;48.174;11.562;2023-06-19T04:55:32;26.70;62.10
27803;DHT22;15182;48.174;11.562;2023-06-19T04:57:59;26.70;62.30
27803;DHT22;15182;48.174;11.562;2023-06-19T05:00:27;26.70;63.30
27803;DHT22;15182;48.174;11.562;2023-06-19T05:02:55;26.60;62.70
27803;DHT22;15182;48.174;11.562;2023-06-19T05:05:28;26.60;62.80
27803;DHT22;15182;48.174;11.562;2023-06-19T05:07:56;26.60;63.20
27803;DHT22;15182;48.174;11.562;2023-06-19T05:10:24;26.50;63.10
27803;DHT22;15182;48.174;11.562;2023-06-19T05:12:51;26.60;63.50
27803;DHT22;15182;48.174;11.562;2023-06-19T05:15:19;26.60;63.60
27803;DHT22;15182;48.174;11.562;2023-06-19T05:17:47;26.60;63.80
27803;DHT22;15182;48.174;11.562;2023-06-19T05:20:15;26.60;64.00
27803;DHT22;15182;48.174;11.562;2023-06-19T05:22:44;26.60;64.30
27803;DHT22;15182;48.174;11.562;2023-06-19T05:25:12;26.60;65.30
27803;DHT22;15182;48.174;11.562;2023-06-19T05:27:40;26.60;64.40
27803;DHT22;15182;48.174;11.562;2023-06-19T05:30:09;26.60;64.40
27803;DHT22;15182;48.174;11.562;2023-06-19T05:32:37;26.50;64.80
27803;DHT22;15182;48.174;11.562;2023-06-19T05:35:06;26.60;65.00
27803;DHT22;15182;48.174;11.562;2023-06-19T05:37:34;26.60;65.20
27803;DHT22;15182;48.174;11.562;2023-06-19T05:40:04;26.50;65.10
27803;DHT22;15182;48.174;11.562;2023-06-19T05:42:33;26.50;65.30
27803;DHT22;15182;48.174;11.562;2023-06-19T05:45:01;26.50;64.90
27803;DHT22;15182;48.174;11.562;2023-06-19T05:47:29;26.50;65.10
27803;DHT22;15182;48.174;11.562;2023-06-19T05:49:57;26.50;65.20
27803;DHT22;15182;48.174;11.562;2023-06-19T05:52:25;26.50;65.00
27803;DHT22;15182;48.174;11.562;2023-06-19T05:54:53;26.50;64.90
27803;DHT22;15182;48.174;11.562;2023-06-19T05:57:22;26.50;64.90
27803;DHT22;15182;48.174;11.562;2023-06-19T05:59:50;26.60;65.10
27803;DHT22;15182;48.174;11.562;2023-06-19T06:02:20;26.60;64.90
27803;DHT22;15182;48.174;11.562;2023-06-19T06:04:48;26.60;65.00
27803;DHT22;15182;48.174;11.562;2023-06-19T06:07:15;26.60;64.90
27803;DHT22;15182;48.174;11.562;2023-06-19T06:09:43;26.70;64.80
27803;DHT22;15182;48.174;11.562;2023-06-19T06:12:11;26.70;64.80
27803;DHT22;15182;48.174;11.562;2023-06-19T06:14:41;26.70;65.00
27803;DHT22;15182;48.174;11.562;2023-06-19T06:17:09;26.70;65.20
27803;DHT22;15182;48.174;11.562;2023-06-19T06:19:37;26.70;64.90
27803;DHT22;15182;48.174;11.562;2023-06-19T06:22:05;26.80;65.10
27803;DHT22;15182;48.174;11.562;2023-06-19T06:24:33;26.80;65.00
27803;DHT22;15182;48.174;11.562;2023-06-19T06:27:01;26.80;64.90
27803;DHT22;15182;48.174;11.562;2023-06-19T06:29:29;26.80;65.10
27803;DHT22;15182;48.174;11.562;2023-06-19T06:32:04;26.80;65.00
27803;DHT22;15182;48.174;11.562;2023-06-19T06:34:33;26.90;65.40
27803;DHT22;15182;48.174;11.562;2023-06-19T06:37:01;26.90;65.20
27803;DHT22;15182;48.174;11.562;2023-06-19T06:39:30;26.90;65.40
27803;DHT22;15182;48.174;11.562;2023-06-19T06:41:58;26.90;65.50
27803;DHT22;15182;48.174;11.562;2023-06-19T06:44:26;27.00;65.40
27803;DHT22;15182;48.174;11.562;2023-06-19T06:46:54;27.00;65.30
27803;DHT22;15182;48.174;11.562;2023-06-19T06:49:23;27.10;65.30
27803;DHT22;15182;48.174;11.562;2023-06-19T06:51:51;27.10;65.30
27803;DHT22;15182;48.174;11.562;2023-06-19T06:54:18;27.20;65.40
27803;DHT22;15182;48.174;11.562;2023-06-19T06:56:46;27.20;65.20
27803;DHT22;15182;48.174;11.562;2023-06-19T06:59:14;27.20;64.80
27803;DHT22;15182;48.174;11.562;2023-06-19T07:01:42;27.30;64.90
27803;DHT22;15182;48.174;11.562;2023-06-19T07:04:10;27.30;64.90
27803;DHT22;15182;48.174;11.562;2023-06-19T07:06:39;27.40;64.90
27803;DHT22;15182;48.174;11.562;2023-06-19T07:09:07;27.40;64.80
27803;DHT22;15182;48.174;11.562;2023-06-19T07:11:35;27.50;65.00
27803;DHT22;15182;48.174;11.562;2023-06-19T07:14:03;27.50;64.90
27803;DHT22;15182;48.174;11.562;2023-06-19T07:16:30;27.50;64.90
27803;DHT22;15182;48.174;11.562;2023-06-19T07:18:58;27.50;65.20
27803;DHT22;15182;48.174;11.562;2023-06-19T07:21:27;27.60;65.30
27803;DHT22;15182;48.174;11.562;2023-06-19T07:23:57;27.60;65.30
27803;DHT22;15182;48.174;11.562;2023-06-19T07:26:26;27.60;65.70
27803;DHT22;15182;48.174;11.562;2023-06-19T07:28:53;27.60;65.60
27803;DHT22;15182;48.174;11.562;2023-06-19T07:31:21;27.60;65.40
27803;DHT22;15182;48.174;11.562;2023-06-19T07:33:49;27.70;65.30
27803;DHT22;15182;48.174;11.562;2023-06-19T07:36:17;27.70;65.20
27803;DHT22;15182;48.174;11.562;2023-06-19T07:38:45;27.70;65.20
27803;DHT22;15182;48.174;11.562;2023-06-19T07:41:14;27.80;65.10
27803;DHT22;15182;48.174;11.562;2023-06-19T07:43:42;27.80;65.30
27803;DHT22;15182;48.174;11.562;2023-06-19T07:46:10;27.80;65.10
27803;DHT22;15182;48.174;11.562;2023-06-19T07:48:38;27.80;65.20
27803;DHT22;15182;48.174;11.562;2023-06-19T07:51:06;27.90;65.20
27803;DHT22;15182;48.174;11.562;2023-06-19T07:53:33;27.90;65.20
27803;DHT22;15182;48.174;11.562;2023-06-19T07:56:01;27.90;65.30
27803;DHT22;15182;48.174;11.562;2023-06-19T07:58:30;28.00;65.20
27803;DHT22;15182;48.174;11.562;2023-06-19T08:00:58;28.00;65.00
27803;DHT22;15182;48.174;11.562;2023-06-19T08:03:26;28.10;65.00
27803;DHT22;15182;48.174;11.562;2023-06-19T08:05:54;28.20;65.40
27803;DHT22;15182;48.174;11.562;2023-06-19T08:08:22;28.20;64.90
27803;DHT22;15182;48.174;11.562;2023-06-19T08:10:49;28.40;65.10
27803;DHT22;15182;48.174;11.562;2023-06-19T08:13:17;28.40;65.20
27803;DHT22;15182;48.174;11.562;2023-06-19T08:15:46;28.60;65.30
27803;DHT22;15182;48.174;11.562;2023-06-19T08:18:14;28.70;65.10
27803;DHT22;15182;48.174;11.562;2023-06-19T08:20:42;28.80;64.60
27803;DHT22;15182;48.174;11.562;2023-06-19T08:23:10;28.90;64.30
27803;DHT22;15182;48.174;11.562;2023-06-19T08:25:37;29.00;64.60
27803;DHT22;15182;48.174;11.562;2023-06-19T08:28:05;29.10;64.60
27803;DHT22;15182;48.174;11.562;2023-06-19T08:30:33;29.10;64.40
27803;DHT22;15182;48.174;11.562;2023-06-19T08:33:02;29.20;63.90
27803;DHT22;15182;48.174;11.562;2023-06-19T08:35:30;29.20;63.70
27803;DHT22;15182;48.174;11.562;2023-06-19T08:37:58;29.30;63.90
27803;DHT22;15182;48.174;11.562;2023-06-19T08:40:26;29.30;63.40
27803;DHT22;15182;48.174;11.562;2023-06-19T08:42:53;29.40;64.10
27803;DHT22;15182;48.174;11.562;2023-06-19T08:45:22;29.60;63.30
27803;DHT22;15182;48.174;11.562;2023-06-19T08:47:57;29.70;63.30
27803;DHT22;15182;48.174;11.562;2023-06-19T08:50:27;29.80;63.00
27803;DHT22;15182;48.174;11.562;2023-06-19T08:52:56;30.00;63.00
27803;DHT22;15182;48.174;11.562;2023-06-19T08:55:24;30.10;63.00
27803;DHT22;15182;48.174;11.562;2023-06-19T08:57:52;30.20;62.80
27803;DHT22;15182;48.174;11.562;2023-06-19T09:00:24;30.40;62.40
27803;DHT22;15182;48.174;11.562;2023-06-19T09:02:59;30.50;61.90
27803;DHT22;15182;48.174;11.562;2023-06-19T09:05:29;30.70;62.00
27803;DHT22;15182;48.174;11.562;2023-06-19T09:07:58;30.90;60.70
27803;DHT22;15182;48.174;11.562;2023-06-19T09:10:30;30.90;59.90
27803;DHT22;15182;48.174;11.562;2023-06-19T09:12:59;31.00;59.70
27803;DHT22;15182;48.174;11.562;2023-06-19T09:15:29;31.00;59.60
27803;DHT22;15182;48.174;11.562;2023-06-19T09:18:03;31.00;59.50
27803;DHT22;15182;48.174;11.562;2023-06-19T09:20:34;30.90;59.50
27803;DHT22;15182;48.174;11.562;2023-06-19T09:23:05;30.90;59.50
27803;DHT22;15182;48.174;11.562;2023-06-19T09:25:44;30.90;59.60
27803;DHT22;15182;48.174;11.562;2023-06-19T09:28:19;30.90;59.60
27803;DHT22;15182;48.174;11.562;2023-06-19T09:30:55;30.90;60.10
27803;DHT22;15182;48.174;11.562;2023-06-19T09:33:24;30.80;59.90
27803;DHT22;15182;48.174;11.562;2023-06-19T09:35:55;30.80;60.00
27803;DHT22;15182;48.174;11.562;2023-06-19T09:38:25;30.80;60.00
27803;DHT22;15182;48.174;11.562;2023-06-19T09:40:58;30.80;60.20
27803;DHT22;15182;48.174;11.562;2023-06-19T09:43:33;30.80;60.60
27803;DHT22;15182;48.174;11.562;2023-06-19T09:46:04;30.70;60.50
27803;DHT22;15182;48.174;11.562;2023-06-19T09:48:33;30.80;61.00
27803;DHT22;15182;48.174;11.562;2023-06-19T09:51:19;30.80;61.10
27803;DHT22;15182;48.174;11.562;2023-06-19T09:53:52;30.90;61.70
27803;DHT22;15182;48.174;11.562;2023-06-19T09:56:19;31.00;61.80
27803;DHT22;15182;48.174;11.562;2023-06-19T09:58:49;31.20;61.40
27803;DHT22;15182;48.174;11.562;2023-06-19T10:01:19;31.40;60.90
27803;DHT22;15182;48.174;11.562;2023-06-19T10:03:48;31.60;61.00
27803;DHT22;15182;48.174;11.562;2023-06-19T10:06:17;31.70;60.70
27803;DHT22;15182;48.174;11.562;2023-06-19T10:08:46;31.90;60.40
27803;DHT22;15182;48.174;11.562;2023-06-19T10:11:14;32.00;59.90
27803;DHT22;15182;48.174;11.562;2023-06-19T10:13:42;32.10;59.90
27803;DHT22;15182;48.174;11.562;2023-06-19T10:16:20;32.30;59.90
27803;DHT22;15182;48.174;11.562;2023-06-19T10:18:48;32.40;59.60
27803;DHT22;15182;48.174;11.562;2023-06-19T10:21:19;32.50;59.80
27803;DHT22;15182;48.174;11.562;2023-06-19T10:23:55;32.60;59.30
27803;DHT22;15182;48.174;11.562;2023-06-19T10:26:31;32.70;59.40
27803;DHT22;15182;48.174;11.562;2023-06-19T10:28:59;32.80;59.20
27803;DHT22;15182;48.174;11.562;2023-06-19T10:31:27;32.90;58.90
27803;DHT22;15182;48.174;11.562;2023-06-19T10:33:55;33.00;59.40
27803;DHT22;15182;48.174;11.562;2023-06-19T10:36:25;33.20;58.70
27803;DHT22;15182;48.174;11.562;2023-06-19T10:38:53;33.30;58.70
27803;DHT22;15182;48.174;11.562;2023-06-19T10:41:22;33.50;58.40
27803;DHT22;15182;48.174;11.562;2023-06-19T10:43:56;33.60;57.40
27803;DHT22;15182;48.174;11.562;2023-06-19T10:46:29;33.60;57.00
27803;DHT22;15182;48.174;11.562;2023-06-19T10:48:58;33.60;57.50
27803;DHT22;15182;48.174;11.562;2023-06-19T10:51:28;33.60;57.30
27803;DHT22;15182;48.174;11.562;2023-06-19T10:53:57;33.60;56.80
27803;DHT22;15182;48.174;11.562;2023-06-19T10:56:25;33.60;56.80
27803;DHT22;15182;48.174;11.562;2023-06-19T10:59:00;33.70;56.70
27803;DHT22;15182;48.174;11.562;2023-06-19T11:01:36;33.80;56.20
27803;DHT22;15182;48.174;11.562;2023-06-19T11:04:05;33.90;55.60
27803;DHT22;15182;48.174;11.562;2023-06-19T11:06:36;34.00;55.60
27803;DHT22;15182;48.174;11.562;2023-06-19T11:09:05;34.10;55.70
27803;DHT22;15182;48.174;11.562;2023-06-19T11:11:35;34.20;55.70
27803;DHT22;15182;48.174;11.562;2023-06-19T11:14:04;34.30;55.50
27803;DHT22;15182;48.174;11.562;2023-06-19T11:16:33;34.40;55.20
27803;DHT22;15182;48.174;11.562;2023-06-19T11:19:01;34.50;55.10
27803;DHT22;15182;48.174;11.562;2023-06-19T11:21:30;34.60;55.10
27803;DHT22;15182;48.174;11.562;2023-06-19T11:24:00;34.70;55.60
27803;DHT22;15182;48.174;11.562;2023-06-19T11:26:28;34.80;54.80
27803;DHT22;15182;48.174;11.562;2023-06-19T11:28:57;34.90;54.30
27803;DHT22;15182;48.174;11.562;2023-06-19T11:31:25;35.00;54.30
27803;DHT22;15182;48.174;11.562;2023-06-19T11:33:58;35.10;54.10
27803;DHT22;15182;48.174;11.562;2023-06-19T11:36:27;35.20;54.50
27803;DHT22;15182;48.174;11.562;2023-06-19T11:38:56;35.30;54.60
27803;DHT22;15182;48.174;11.562;2023-06-19T11:41:27;35.30;53.70
27803;DHT22;15182;48.174;11.562;2023-06-19T11:43:59;35.30;53.60
27803;DHT22;15182;48.174;11.562;2023-06-19T11:46:30;35.30;53.40
27803;DHT22;15182;48.174;11.562;2023-06-19T11:49:09;35.30;53.50
27803;DHT22;15182;48.174;11.562;2023-06-19T11:51:38;35.40;53.20
27803;DHT22;15182;48.174;11.562;2023-06-19T11:54:08;35.40;53.40
27803;DHT22;15182;48.174;11.562;2023-06-19T11:56:38;35.30;53.10
27803;DHT22;15182;48.174;11.562;2023-06-19T11:59:07;35.30;53.10
27803;DHT22;15182;48.174;11.562;2023-06-19T12:01:36;35.10;53.00
27803;DHT22;15182;48.174;11.562;2023-06-19T12:04:04;35.10;53.60
27803;DHT22;15182;48.174;11.562;2023-06-19T12:06:32;35.10;53.50
27803;DHT22;15182;48.174;11.562;2023-06-19T12:09:01;35.20;53.90
27803;DHT22;15182;48.174;11.562;2023-06-19T12:11:30;35.30;53.50
27803;DHT22;15182;48.174;11.562;2023-06-19T12:14:00;35.40;53.20
27803;DHT22;15182;48.174;11.562;2023-06-19T12:16:27;35.50;52.90
27803;DHT22;15182;48.174;11.562;2023-06-19T12:18:55;35.60;52.80
27803;DHT22;15182;48.174;11.562;2023-06-19T12:21:23;35.70;52.60
27803;DHT22;15182;48.174;11.562;2023-06-19T12:23:51;35.70;53.10
27803;DHT22;15182;48.174;11.562;2023-06-19T12:26:19;35.60;52.20
27803;DHT22;15182;48.174;11.562;2023-06-19T12:28:47;35.60;52.10
27803;DHT22;15182;48.174;11.562;2023-06-19T12:31:16;35.60;52.20
27803;DHT22;15182;48.174;11.562;2023-06-19T12:33:44;35.50;52.50
27803;DHT22;15182;48.174;11.562;2023-06-19T12:36:14;35.50;52.70
27803;DHT22;15182;48.174;11.562;2023-06-19T12:38:42;35.50;52.30
27803;DHT22;15182;48.174;11.562;2023-06-19T12:41:11;35.50;52.40
27803;DHT22;15182;48.174;11.562;2023-06-19T12:43:39;35.60;52.30
27803;DHT22;15182;48.174;11.562;2023-06-19T12:46:07;35.60;52.40
27803;DHT22;15182;48.174;11.562;2023-06-19T12:48:37;35.60;52.10
27803;DHT22;15182;48.174;11.562;2023-06-19T12:51:04;35.60;52.10
27803;DHT22;15182;48.174;11.562;2023-06-19T12:53:32;35.60;52.20
27803;DHT22;15182;48.174;11.562;2023-06-19T12:56:00;35.60;52.10
27803;DHT22;15182;48.174;11.562;2023-06-19T12:58:28;35.60;52.20
27803;DHT22;15182;48.174;11.562;2023-06-19T13:00:56;35.70;52.20
27803;DHT22;15182;48.174;11.562;2023-06-19T13:03:24;35.70;52.20
27803;DHT22;15182;48.174;11.562;2023-06-19T13:05:53;35.70;52.40
27803;DHT22;15182;48.174;11.562;2023-06-19T13:08:21;35.70;52.00
27803;DHT22;15182;48.174;11.562;2023-06-19T13:10:48;35.80;52.00
27803;DHT22;15182;48.174;11.562;2023-06-19T13:13:16;35.80;51.40
27803;DHT22;15182;48.174;11.562;2023-06-19T13:15:44;35.90;51.60
27803;DHT22;15182;48.174;11.562;2023-06-19T13:18:12;35.90;51.60
27803;DHT22;15182;48.174;11.562;2023-06-19T13:20:39;36.00;51.70
27803;DHT22;15182;48.174;11.562;2023-06-19T13:23:08;36.10;51.60
27803;DHT22;15182;48.174;11.562;2023-06-19T13:25:36;36.10;51.40
27803;DHT22;15182;48.174;11.562;2023-06-19T13:28:04;36.20;51.50
27803;DHT22;15182;48.174;11.562;2023-06-19T13:30:32;36.20;51.00
27803;DHT22;15182;48.174;11.562;2023-06-19T13:32:59;36.20;51.50
27803;DHT22;15182;48.174;11.562;2023-06-19T13:35:28;36.20;51.50
27803;DHT22;15182;48.174;11.562;2023-06-19T13:37:56;36.20;51.10
27803;DHT22;15182;48.174;11.562;2023-06-19T13:40:27;36.30;51.20
27803;DHT22;15182;48.174;11.562;2023-06-19T13:42:55;36.30;51.20
27803;DHT22;15182;48.174;11.562;2023-06-19T13:45:23;36.30;51.10
27803;DHT22;15182;48.174;11.562;2023-06-19T13:47:51;36.30;50.90
27803;DHT22;15182;48.174;11.562;2023-06-19T13:50:19;36.30;50.70
27803;DHT22;15182;48.174;11.562;2023-06-19T13:52:47;36.30;50.90
27803;DHT22;15182;48.174;11.562;2023-06-19T13:55:14;36.20;51.10
27803;DHT22;15182;48.174;11.562;2023-06-19T13:57:45;36.20;51.00
27803;DHT22;15182;48.174;11.562;2023-06-19T14:00:13;36.20;51.00
27803;DHT22;15182;48.174;11.562;2023-06-19T14:02:41;36.10;51.10
27803;DHT22;15182;48.174;11.562;2023-06-19T14:05:10;36.20;51.30
27803;DHT22;15182;48.174;11.562;2023-06-19T14:07:40;36.20;51.20
27803;DHT22;15182;48.174;11.562;2023-06-19T14:10:09;36.20;51.00
27803;DHT22;15182;48.174;11.562;2023-06-19T14:12:37;36.20;50.80
27803;DHT22;15182;48.174;11.562;2023-06-19T14:15:08;36.20;50.70
27803;DHT22;15182;48.174;11.562;2023-06-19T14:17:36;36.10;50.90
27803;DHT22;15182;48.174;11.562;2023-06-19T14:20:05;36.10;50.90
27803;DHT22;15182;48.174;11.562;2023-06-19T14:22:34;36.00;51.00
27803;DHT22;15182;48.174;11.562;2023-06-19T14:25:02;36.00;51.20
27803;DHT22;15182;48.174;11.562;2023-06-19T14:27:31;36.00;51.00
27803;DHT22;15182;48.174;11.562;2023-06-19T14:30:00;35.90;50.90
27803;DHT22;15182;48.174;11.562;2023-06-19T14:32:29;35.90;50.80
27803;DHT22;15182;48.174;11.562;2023-06-19T14:34:56;35.80;50.70
27803;DHT22;15182;48.174;11.562;2023-06-19T14:37:24;35.80;51.10
27803;DHT22;15182;48.174;11.562;2023-06-19T14:39:52;35.70;51.10
27803;DHT22;15182;48.174;11.562;2023-06-19T14:42:21;35.60;51.20
27803;DHT22;15182;48.174;11.562;2023-06-19T14:44:49;35.60;51.20
27803;DHT22;15182;48.174;11.562;2023-06-19T14:47:17;35.50;51.50
27803;DHT22;15182;48.174;11.562;2023-06-19T14:49:46;35.50;51.30
27803;DHT22;15182;48.174;11.562;2023-06-19T14:52:14;35.40;51.30
27803;DHT22;15182;48.174;11.562;2023-06-19T14:54:42;35.30;51.40
27803;DHT22;15182;48.174;11.562;2023-06-19T14:57:10;35.30;51.60
27803;DHT22;15182;48.174;11.562;2023-06-19T14:59:38;35.20;51.50
27803;DHT22;15182;48.174;11.562;2023-06-19T15:02:06;35.20;51.80
27803;DHT22;15182;48.174;11.562;2023-06-19T15:04:34;35.20;51.70
27803;DHT22;15182;48.174;11.562;2023-06-19T15:07:03;35.20;51.50
27803;DHT22;15182;48.174;11.562;2023-06-19T15:09:31;35.10;51.40
27803;DHT22;15182;48.174;11.562;2023-06-19T15:11:59;35.10;51.40
27803;DHT22;15182;48.174;11.562;2023-06-19T15:14:26;35.00;51.40
27803;DHT22;15182;48.174;11.562;2023-06-19T15:16:54;35.00;51.90
27803;DHT22;15182;48.174;11.562;2023-06-19T15:19:22;34.90;51.70
27803;DHT22;15182;48.174;11.562;2023-06-19T15:21:50;34.80;51.90
27803;DHT22;15182;48.174;11.562;2023-06-19T15:24:19;34.70;51.80
27803;DHT22;15182;48.174;11.562;2023-06-19T15:26:47;34.70;52.10